createdAt,value
2023-05-15T00:02:02.264Z,93.77
2023-05-15T00:05:06.944Z,93.39
2023-05-15T00:08:10.887Z,93.18
2023-05-15T00:11:14.850Z,92.63
2023-05-15T00:14:20.330Z,92.02
2023-05-15T00:17:24.063Z,93.49
2023-05-15T00:20:27.846Z,92.40
2023-05-15T00:23:31.677Z,92.12
2023-05-15T00:26:36.048Z,91.76
2023-05-15T00:29:42.177Z,90.92
2023-05-15T00:32:46.045Z,91.30
2023-05-15T00:35:49.910Z,91.59
2023-05-15T00:38:54.083Z,90.89
2023-05-15T00:42:00.633Z,91.82
2023-05-15T00:45:10.921Z,92.01
2023-05-15T00:48:15.470Z,91.83
2023-05-15T00:51:19.462Z,95.15
2023-05-15T00:54:23.295Z,96.98
2023-05-15T00:57:28.711Z,97.01
2023-05-15T01:00:35.442Z,94.84
2023-05-15T01:03:40.779Z,96.57
2023-05-15T01:06:45.248Z,97.28
2023-05-15T01:09:50.889Z,97.83
2023-05-15T01:12:56.644Z,96.35
2023-05-15T01:16:01.886Z,96.44
2023-05-15T01:19:07.304Z,96.36
2023-05-15T01:22:46.245Z,97.15
2023-05-15T01:26:34.965Z,95.41
2023-05-15T01:29:46.025Z,96.68
2023-05-15T01:32:55.893Z,95.98
2023-05-15T01:36:06.672Z,97.27
2023-05-15T01:39:14.142Z,98.52
2023-05-15T01:42:21.003Z,97.44
2023-05-15T01:45:30.490Z,96.27
2023-05-15T01:48:36.696Z,97.44
2023-05-15T01:51:42.300Z,99.11
2023-05-15T01:54:47.567Z,99.95
2023-05-15T01:57:52.705Z,99.23
2023-05-15T02:00:58.973Z,99.01
2023-05-15T02:04:05.576Z,98.96
2023-05-15T02:07:09.711Z,100.00
2023-05-15T02:10:14.571Z,100.00
2023-05-15T02:13:26.251Z,100.00
2023-05-15T02:16:31.589Z,100.00
2023-05-15T02:19:35.424Z,100.00
2023-05-15T02:22:39.993Z,100.00
2023-05-15T02:25:51.642Z,99.20
2023-05-15T02:29:07.112Z,98.36
2023-05-15T02:32:22.555Z,97.26
2023-05-15T02:35:36.714Z,96.42
2023-05-15T02:38:46.360Z,95.75
2023-05-15T02:41:52.615Z,95.19
2023-05-15T02:44:57.231Z,96.10
2023-05-15T02:48:04.013Z,94.57
2023-05-15T02:51:09.287Z,93.76
2023-05-15T02:54:13.465Z,93.33
2023-05-15T02:57:17.398Z,93.08
2023-05-15T03:00:22.007Z,93.30
2023-05-15T03:03:27.335Z,93.85
2023-05-15T03:06:31.958Z,96.82
2023-05-15T03:09:35.969Z,94.69
2023-05-15T03:12:40.717Z,94.39
2023-05-15T03:15:46.108Z,97.76
2023-05-15T03:18:51.564Z,97.03
2023-05-15T03:21:55.524Z,97.06
2023-05-15T03:24:59.500Z,97.63
2023-05-15T03:28:03.546Z,98.05
2023-05-15T03:31:08.633Z,96.38
2023-05-15T03:34:13.987Z,95.23
2023-05-15T03:37:17.839Z,94.73
2023-05-15T03:40:21.607Z,93.94
2023-05-15T03:43:25.871Z,93.91
2023-05-15T03:46:29.657Z,93.22
2023-05-15T03:49:35.304Z,92.58
2023-05-15T03:52:42.378Z,93.30
2023-05-15T03:55:46.329Z,91.75
2023-05-15T03:58:50.085Z,89.66
2023-05-15T04:02:04.381Z,89.88
2023-05-15T04:05:11.652Z,91.39
2023-05-15T04:08:15.441Z,91.35
2023-05-15T04:11:19.120Z,92.39
2023-05-15T04:14:22.931Z,92.13
2023-05-15T04:17:26.932Z,91.70
2023-05-15T04:20:32.469Z,91.11
2023-05-15T04:23:36.200Z,89.84
2023-05-15T04:26:40.112Z,89.21
2023-05-15T04:29:43.829Z,88.81
2023-05-15T04:32:47.609Z,89.75
2023-05-15T04:35:53.470Z,87.77
2023-05-15T04:38:57.103Z,89.46
2023-05-15T04:42:00.936Z,89.03
2023-05-15T04:45:05.414Z,90.07
2023-05-15T04:48:09.208Z,88.85
2023-05-15T04:51:14.567Z,89.37
2023-05-15T04:54:18.294Z,89.17
2023-05-15T04:57:22.102Z,91.92
2023-05-15T05:00:26.572Z,93.28
2023-05-15T05:03:30.694Z,90.36
2023-05-15T05:06:36.133Z,91.10
2023-05-15T05:09:40.860Z,90.39
2023-05-15T05:12:44.766Z,89.39
2023-05-15T05:15:48.841Z,90.27
2023-05-15T05:18:52.855Z,90.57
2023-05-15T05:22:01.716Z,90.13
2023-05-15T05:25:06.141Z,89.39
2023-05-15T05:28:09.955Z,89.41
2023-05-15T05:31:13.969Z,88.78
2023-05-15T05:34:17.882Z,88.17
2023-05-15T05:37:23.224Z,87.11
2023-05-15T05:40:27.177Z,85.92
2023-05-15T05:43:32.012Z,85.92
2023-05-15T05:46:35.942Z,86.33
2023-05-15T05:49:40.241Z,84.34
2023-05-15T05:52:45.582Z,84.39
2023-05-15T05:55:49.786Z,84.38
2023-05-15T05:58:53.927Z,84.40
2023-05-15T06:01:58.134Z,85.10
2023-05-15T06:05:02.081Z,84.40
2023-05-15T06:08:07.885Z,86.14
2023-05-15T06:11:11.802Z,86.28
2023-05-15T06:14:15.704Z,86.15
2023-05-15T06:17:19.594Z,86.30
2023-05-15T06:20:23.817Z,84.97
2023-05-15T06:23:29.340Z,85.67
2023-05-15T06:26:33.263Z,83.93
2023-05-15T06:29:37.290Z,84.40
2023-05-15T06:32:41.912Z,82.49
2023-05-15T06:35:45.975Z,83.38
2023-05-15T06:38:51.339Z,82.07
2023-05-15T06:41:59.442Z,82.47
2023-05-15T06:45:03.293Z,83.43
2023-05-15T06:48:07.643Z,83.87
2023-05-15T06:51:11.742Z,83.98
2023-05-15T06:54:17.164Z,83.05
2023-05-15T06:57:21.128Z,82.52
2023-05-15T07:00:25.085Z,84.50
2023-05-15T07:03:29.014Z,82.87
2023-05-15T07:06:33.174Z,82.52
2023-05-15T07:09:38.513Z,81.43
2023-05-15T07:12:42.498Z,80.81
2023-05-15T07:15:46.814Z,80.59
2023-05-15T07:18:50.823Z,81.57
2023-05-15T07:21:54.905Z,81.05
2023-05-15T07:25:00.349Z,80.77
2023-05-15T07:28:04.315Z,79.54
2023-05-15T07:31:08.959Z,77.84
2023-05-15T07:34:13.394Z,78.03
2023-05-15T07:37:17.449Z,79.63
2023-05-15T07:40:22.994Z,78.72
2023-05-15T07:43:27.030Z,78.66
2023-05-15T07:46:30.964Z,78.54
2023-05-15T07:49:34.846Z,76.72
2023-05-15T07:52:38.649Z,77.26
2023-05-15T07:55:45.028Z,77.16
2023-05-15T07:58:48.961Z,75.73
2023-05-15T08:01:52.949Z,76.55
2023-05-15T08:04:56.813Z,76.64
2023-05-15T08:08:02.673Z,75.67
2023-05-15T08:11:08.018Z,75.95
2023-05-15T08:14:13.809Z,76.24
2023-05-15T08:17:18.044Z,76.08
2023-05-15T08:20:22.108Z,76.06
2023-05-15T08:23:26.126Z,76.50
2023-05-15T08:26:31.428Z,77.13
2023-05-15T08:29:37.302Z,76.23
2023-05-15T08:32:43.664Z,75.70
2023-05-15T08:35:47.631Z,75.30
2023-05-15T08:38:51.626Z,74.91
2023-05-15T08:42:02.299Z,75.19
2023-05-15T08:45:08.457Z,74.39
2023-05-15T08:48:15.742Z,72.98
2023-05-15T08:51:20.070Z,73.52
2023-05-15T08:54:24.353Z,73.02
2023-05-15T08:57:30.054Z,72.52
2023-05-15T09:00:35.357Z,71.28
2023-05-15T09:03:39.600Z,70.90
2023-05-15T09:06:45.242Z,72.15
2023-05-15T09:09:49.696Z,71.32
2023-05-15T09:12:56.416Z,70.08
2023-05-15T09:16:00.254Z,71.17
2023-05-15T09:19:05.025Z,70.34
2023-05-15T09:22:23.463Z,71.17
2023-05-15T09:25:37.840Z,71.01
2023-05-15T09:28:43.341Z,70.14
2023-05-15T09:31:48.828Z,70.05
2023-05-15T09:34:52.803Z,68.95
2023-05-15T09:38:01.372Z,69.81
2023-05-15T09:41:06.479Z,69.66
2023-05-15T09:44:21.569Z,70.06
2023-05-15T09:47:26.764Z,70.60
2023-05-15T09:50:36.313Z,70.50
2023-05-15T09:53:40.363Z,70.05
2023-05-15T09:56:45.188Z,70.04
2023-05-15T09:59:51.145Z,69.71
2023-05-15T10:02:55.139Z,69.62
2023-05-15T10:06:03.845Z,68.09
2023-05-15T10:09:08.364Z,68.70
2023-05-15T10:12:12.436Z,68.51
2023-05-15T10:15:19.198Z,67.25
2023-05-15T10:18:26.529Z,66.59
2023-05-15T10:21:32.521Z,65.91
2023-05-15T10:24:37.233Z,65.59
2023-05-15T10:27:43.274Z,65.62
2023-05-15T10:30:49.896Z,66.11
2023-05-15T10:33:56.926Z,66.30
2023-05-15T10:37:02.025Z,68.11
2023-05-15T10:40:10.703Z,68.30
2023-05-15T10:43:16.560Z,67.63
2023-05-15T10:46:23.570Z,66.57
2023-05-15T10:49:27.521Z,65.30
2023-05-15T10:52:33.696Z,65.04
2023-05-15T10:55:38.411Z,67.77
2023-05-15T10:58:47.642Z,68.34
2023-05-15T11:01:53.506Z,66.74
2023-05-15T11:04:59.195Z,66.97
2023-05-15T11:08:28.120Z,65.97
2023-05-15T11:11:57.917Z,66.58
2023-05-15T11:15:21.629Z,66.48
2023-05-15T11:18:27.814Z,65.84
2023-05-15T11:21:33.808Z,67.04
2023-05-15T11:24:50.759Z,65.81
2023-05-15T11:27:57.478Z,65.88
2023-05-15T11:31:02.812Z,66.10
2023-05-15T11:34:09.497Z,66.97
2023-05-15T11:37:19.721Z,68.09
2023-05-15T11:40:26.247Z,68.97
2023-05-15T11:43:32.004Z,68.49
2023-05-15T11:46:37.050Z,67.91
2023-05-15T11:49:42.848Z,68.88
2023-05-15T11:52:47.048Z,68.22
2023-05-15T11:55:50.984Z,67.79
2023-05-15T11:58:57.252Z,67.64
2023-05-15T12:02:01.363Z,66.64
2023-05-15T12:05:09.084Z,67.45
2023-05-15T12:08:13.480Z,68.15
2023-05-15T12:11:17.354Z,68.08
2023-05-15T12:14:29.167Z,68.57
2023-05-15T12:17:33.752Z,69.13
2023-05-15T12:20:45.247Z,70.34
2023-05-15T12:24:06.226Z,70.46
2023-05-15T12:27:11.512Z,70.59
2023-05-15T12:30:16.543Z,71.36
2023-05-15T12:33:20.842Z,70.43
2023-05-15T12:36:29.957Z,69.99
2023-05-15T12:39:34.301Z,69.80
2023-05-15T12:42:43.001Z,70.39
2023-05-15T12:45:46.993Z,69.96
2023-05-15T12:48:51.485Z,69.91
2023-05-15T12:51:56.718Z,69.75
2023-05-15T12:55:02.418Z,69.74
2023-05-15T12:58:07.945Z,69.79
2023-05-15T13:01:11.985Z,69.91
2023-05-15T13:04:18.287Z,68.50
2023-05-15T13:07:23.671Z,68.89
2023-05-15T13:10:28.167Z,68.58
2023-05-15T13:13:45.975Z,68.80
2023-05-15T13:16:49.889Z,68.49
2023-05-15T13:19:53.907Z,68.49
2023-05-15T13:22:59.278Z,68.10
2023-05-15T13:26:03.222Z,68.24
2023-05-15T13:29:07.092Z,69.37
2023-05-15T13:32:10.957Z,68.44
2023-05-15T13:35:14.970Z,68.73
2023-05-15T13:38:20.404Z,68.55
2023-05-15T13:41:24.199Z,69.10
2023-05-15T13:44:28.199Z,68.73
2023-05-15T13:47:32.205Z,68.67
2023-05-15T13:50:36.274Z,70.20
2023-05-15T13:53:41.662Z,68.99
2023-05-15T13:56:45.474Z,68.78
2023-05-15T13:59:49.349Z,69.00
2023-05-15T14:02:53.212Z,68.33
2023-05-15T14:05:57.084Z,69.04
2023-05-15T14:09:02.460Z,68.57
2023-05-15T14:12:06.654Z,69.30
2023-05-15T14:15:12.365Z,69.97
2023-05-15T14:18:16.397Z,69.57
2023-05-15T14:21:20.344Z,69.57
2023-05-15T14:24:25.725Z,72.24
2023-05-15T14:27:29.726Z,72.58
2023-05-15T14:30:36.637Z,71.25
2023-05-15T14:33:41.674Z,73.28
2023-05-15T14:36:46.633Z,73.71
2023-05-15T14:39:51.969Z,73.45
2023-05-15T14:42:55.853Z,73.49
2023-05-15T14:45:59.850Z,73.47
2023-05-15T14:49:03.884Z,74.74
2023-05-15T14:52:09.798Z,75.13
2023-05-15T14:55:15.312Z,75.59
2023-05-15T14:58:19.269Z,74.35
2023-05-15T15:01:23.283Z,73.94
2023-05-15T15:04:29.352Z,74.09
2023-05-15T15:07:33.250Z,75.52
2023-05-15T15:10:40.294Z,75.08
2023-05-15T15:13:44.199Z,74.67
2023-05-15T15:16:48.233Z,75.96
2023-05-15T15:19:52.216Z,76.98
2023-05-15T15:22:56.631Z,77.22
2023-05-15T15:26:02.161Z,78.86
2023-05-15T15:29:06.143Z,78.72
2023-05-15T15:32:10.055Z,78.03
2023-05-15T15:35:14.175Z,78.32
2023-05-15T15:38:18.079Z,78.23
2023-05-15T15:41:23.784Z,77.43
2023-05-15T15:44:27.639Z,78.43
2023-05-15T15:47:32.439Z,77.66
2023-05-15T15:50:36.448Z,77.84
2023-05-15T15:53:40.573Z,78.57
2023-05-15T15:56:47.916Z,77.28
2023-05-15T15:59:51.761Z,77.61
2023-05-15T16:02:55.735Z,77.68
2023-05-15T16:06:00.419Z,78.43
2023-05-15T16:09:05.573Z,78.09
2023-05-15T16:12:11.159Z,78.13
2023-05-15T16:15:23.206Z,78.10
2023-05-15T16:18:27.962Z,77.73
2023-05-15T16:21:31.985Z,79.03
2023-05-15T16:24:37.590Z,78.89
2023-05-15T16:27:42.984Z,77.90
2023-05-15T16:30:49.799Z,78.21
2023-05-15T16:33:54.181Z,77.24
2023-05-15T16:36:58.085Z,78.58
2023-05-15T16:40:02.125Z,77.86
2023-05-15T16:43:07.751Z,77.87
2023-05-15T16:46:11.645Z,78.18
2023-05-15T16:49:15.782Z,78.44
2023-05-15T16:52:19.571Z,78.39
2023-05-15T16:55:23.734Z,78.95
2023-05-15T16:58:29.350Z,79.79
2023-05-15T17:01:33.178Z,80.63
2023-05-15T17:04:37.915Z,80.52
2023-05-15T17:07:42.452Z,81.09
2023-05-15T17:10:46.419Z,81.08
2023-05-15T17:13:51.811Z,82.79
2023-05-15T17:16:55.763Z,81.46
2023-05-15T17:20:02.417Z,80.94
2023-05-15T17:23:06.948Z,81.63
2023-05-15T17:26:10.904Z,83.08
2023-05-15T17:29:16.424Z,84.15
2023-05-15T17:32:20.692Z,83.71
2023-05-15T17:35:25.029Z,84.02
2023-05-15T17:38:29.436Z,83.91
2023-05-15T17:41:33.380Z,84.38
2023-05-15T17:44:38.789Z,83.93
2023-05-15T17:47:42.996Z,84.17
2023-05-15T17:50:46.994Z,85.16
2023-05-15T17:53:51.554Z,85.15
2023-05-15T17:56:55.568Z,84.80
2023-05-15T18:00:01.013Z,84.51
2023-05-15T18:03:05.197Z,84.21
2023-05-15T18:06:09.468Z,84.52
2023-05-15T18:09:13.440Z,84.40
2023-05-15T18:12:17.381Z,84.49
2023-05-15T18:15:22.900Z,84.76
2023-05-15T18:18:26.878Z,84.94
2023-05-15T18:21:31.015Z,84.77
2023-05-15T18:24:34.881Z,85.13
2023-05-15T18:27:38.880Z,85.46
2023-05-15T18:30:45.988Z,84.92
2023-05-15T18:33:50.037Z,84.25
2023-05-15T18:36:54.005Z,86.12
2023-05-15T18:39:59.087Z,85.29
2023-05-15T18:43:03.269Z,85.11
2023-05-15T18:46:08.867Z,85.06
2023-05-15T18:49:12.744Z,85.03
2023-05-15T18:52:16.812Z,84.91
2023-05-15T18:55:20.759Z,86.23
2023-05-15T18:58:24.713Z,86.30
2023-05-15T19:01:30.224Z,87.84
2023-05-15T19:04:34.083Z,86.91
2023-05-15T19:07:38.401Z,87.37
2023-05-15T19:10:42.476Z,89.46
2023-05-15T19:13:46.517Z,89.04
2023-05-15T19:16:51.906Z,89.30
2023-05-15T19:19:56.312Z,89.09
2023-05-15T19:23:00.152Z,90.02
2023-05-15T19:26:04.108Z,92.35
2023-05-15T19:29:07.937Z,91.86
2023-05-15T19:32:13.291Z,92.57
2023-05-15T19:35:17.417Z,94.33
2023-05-15T19:38:21.310Z,94.77
2023-05-15T19:41:25.396Z,93.73
2023-05-15T19:44:29.401Z,92.78
2023-05-15T19:47:34.891Z,92.86
2023-05-15T19:50:40.670Z,91.49
2023-05-15T19:53:45.000Z,92.00
2023-05-15T19:56:48.915Z,92.47
2023-05-15T19:59:52.808Z,94.18
2023-05-15T20:02:58.453Z,94.73
2023-05-15T20:06:02.923Z,94.70
2023-05-15T20:09:06.842Z,94.15
2023-05-15T20:12:10.824Z,94.85
2023-05-15T20:15:16.040Z,95.72
2023-05-15T20:18:22.211Z,96.15
2023-05-15T20:21:26.011Z,94.32
2023-05-15T20:24:30.580Z,95.28
2023-05-15T20:27:34.800Z,95.55
2023-05-15T20:30:38.709Z,95.29
2023-05-15T20:33:44.140Z,93.73
2023-05-15T20:36:48.378Z,92.70
2023-05-15T20:39:52.307Z,92.45
2023-05-15T20:42:57.276Z,92.52
2023-05-15T20:46:01.191Z,92.43
2023-05-15T20:49:06.635Z,92.12
2023-05-15T20:52:10.655Z,92.41
2023-05-15T20:55:20.474Z,92.74
2023-05-15T20:58:24.274Z,91.99
2023-05-15T21:01:28.360Z,91.90
2023-05-15T21:04:33.849Z,91.43
2023-05-15T21:07:38.042Z,91.10
2023-05-15T21:10:41.951Z,90.96
2023-05-15T21:13:45.923Z,90.63
2023-05-15T21:16:49.898Z,91.35
2023-05-15T21:19:57.729Z,92.12
2023-05-15T21:23:01.606Z,91.59
2023-05-15T21:26:05.690Z,91.56
2023-05-15T21:29:10.283Z,90.93
2023-05-15T21:32:14.240Z,91.13
2023-05-15T21:35:19.498Z,92.60
2023-05-15T21:38:23.364Z,92.38
2023-05-15T21:41:27.642Z,92.65
2023-05-15T21:44:31.573Z,92.33
2023-05-15T21:47:35.434Z,92.48
2023-05-15T21:50:41.272Z,92.64
2023-05-15T21:53:45.223Z,91.70
2023-05-15T21:56:49.142Z,91.52
2023-05-15T21:59:52.984Z,92.26
2023-05-15T22:02:57.054Z,91.71
2023-05-15T22:06:02.381Z,92.74
2023-05-15T22:09:06.408Z,92.79
2023-05-15T22:12:10.519Z,95.29
2023-05-15T22:15:16.575Z,94.59
2023-05-15T22:18:20.509Z,93.41
2023-05-15T22:21:25.861Z,92.81
2023-05-15T22:24:29.745Z,91.90
2023-05-15T22:27:34.167Z,92.61
2023-05-15T22:30:38.073Z,91.35
2023-05-15T22:33:42.036Z,91.61
2023-05-15T22:36:47.401Z,91.34
2023-05-15T22:39:51.268Z,91.10
2023-05-15T22:42:55.173Z,90.52
2023-05-15T22:45:59.249Z,90.93
2023-05-15T22:49:04.625Z,90.27
2023-05-15T22:52:12.152Z,90.52
2023-05-15T22:55:17.508Z,89.93
2023-05-15T22:58:21.903Z,89.65
2023-05-15T23:01:26.350Z,90.61
2023-05-15T23:04:30.349Z,91.17
2023-05-15T23:07:36.624Z,91.46
2023-05-15T23:10:40.724Z,90.90
2023-05-15T23:13:44.830Z,91.82
2023-05-15T23:16:50.177Z,92.31
2023-05-15T23:19:54.162Z,92.72
2023-05-15T23:22:59.497Z,93.10
2023-05-15T23:26:03.423Z,92.51
2023-05-15T23:29:07.284Z,92.58
2023-05-15T23:32:11.220Z,92.82
2023-05-15T23:35:15.160Z,93.00
2023-05-15T23:38:22.645Z,93.57
2023-05-15T23:41:26.601Z,92.77
2023-05-15T23:44:30.511Z,92.93
2023-05-15T23:47:34.369Z,92.99
2023-05-15T23:50:38.284Z,92.65
2023-05-15T23:53:43.684Z,93.83
2023-05-15T23:56:47.587Z,93.09
2023-05-15T23:59:51.540Z,93.82
